createdAt,value
2022-07-26T00:02:18.545Z,100665.44
2022-07-26T00:04:44.952Z,100648.88
2022-07-26T00:07:11.176Z,100650.06
2022-07-26T00:09:37.435Z,100643.41
2022-07-26T00:12:03.657Z,100635.34
2022-07-26T00:14:29.931Z,100622.69
2022-07-26T00:16:56.210Z,100626.97
2022-07-26T00:19:22.504Z,100643.22
2022-07-26T00:21:48.741Z,100650.41
2022-07-26T00:24:15.007Z,100644.06
2022-07-26T00:26:41.278Z,100639.63
2022-07-26T00:29:07.891Z,100636.91
2022-07-26T00:31:34.427Z,100635.34
2022-07-26T00:34:00.728Z,100637.06
2022-07-26T00:36:26.937Z,100649.03
2022-07-26T00:38:53.196Z,100650.59
2022-07-26T00:41:19.412Z,100643.88
2022-07-26T00:43:45.662Z,100647.50
2022-07-26T00:46:11.962Z,100646.81
2022-07-26T00:48:38.259Z,100632.28
2022-07-26T00:51:04.551Z,100636.91
2022-07-26T00:53:30.781Z,100635.00
2022-07-26T00:55:57.020Z,100633.81
2022-07-26T00:58:23.237Z,100629.72
2022-07-26T01:00:49.528Z,100619.94
2022-07-26T01:03:15.807Z,100630.59
2022-07-26T01:05:42.051Z,100643.38
2022-07-26T01:08:08.279Z,100635.53
2022-07-26T01:10:34.529Z,100652.97
2022-07-26T01:13:00.759Z,100647.66
2022-07-26T01:15:27.017Z,100647.00
2022-07-26T01:17:53.233Z,100651.59
2022-07-26T01:20:19.495Z,100659.97
2022-07-26T01:22:45.725Z,100671.63
2022-07-26T01:25:11.972Z,100668.72
2022-07-26T01:27:38.213Z,100671.09
2022-07-26T01:30:04.524Z,100690.09
2022-07-26T01:32:30.759Z,100688.22
2022-07-26T01:34:56.998Z,100683.78
2022-07-26T01:37:23.220Z,100670.44
2022-07-26T01:39:49.487Z,100673.50
2022-07-26T01:42:15.700Z,100687.88
2022-07-26T01:44:41.999Z,100684.97
2022-07-26T01:47:08.231Z,100696.44
2022-07-26T01:49:34.583Z,100691.47
2022-07-26T01:52:00.876Z,100689.25
2022-07-26T01:54:27.252Z,100695.75
2022-07-26T01:56:53.512Z,100694.56
2022-07-26T01:59:19.774Z,100693.50
2022-07-26T02:01:46.028Z,100701.56
2022-07-26T02:04:12.630Z,100709.94
2022-07-26T02:06:39.013Z,100715.59
2022-07-26T02:09:07.502Z,100714.91
2022-07-26T02:11:34.021Z,100706.00
2022-07-26T02:14:00.254Z,100709.97
2022-07-26T02:16:26.601Z,100707.41
2022-07-26T02:18:52.967Z,100698.31
2022-07-26T02:21:19.300Z,100697.63
2022-07-26T02:23:45.663Z,100696.09
2022-07-26T02:26:11.915Z,100700.00
2022-07-26T02:28:38.196Z,100697.44
2022-07-26T02:31:04.723Z,100709.59
2022-07-26T02:33:31.267Z,100706.84
2022-07-26T02:35:57.606Z,100710.78
2022-07-26T02:38:25.118Z,100716.06
2022-07-26T02:40:51.593Z,100719.16
2022-07-26T02:43:17.881Z,100715.72
2022-07-26T02:45:44.193Z,100712.13
2022-07-26T02:48:27.670Z,100703.22
2022-07-26T02:50:54.501Z,100717.25
2022-07-26T02:53:20.762Z,100712.66
2022-07-26T02:55:47.151Z,100711.09
2022-07-26T02:58:13.388Z,100705.09
2022-07-26T03:00:39.649Z,100706.44
2022-07-26T03:03:06.240Z,100710.38
2022-07-26T03:05:32.626Z,100709.84
2022-07-26T03:07:58.924Z,100702.53
2022-07-26T03:10:25.381Z,100710.19
2022-07-26T03:12:51.608Z,100710.19
2022-07-26T03:15:17.956Z,100714.28
2022-07-26T03:17:44.411Z,100711.03
2022-07-26T03:20:10.884Z,100701.91
2022-07-26T03:22:37.195Z,100700.69
2022-07-26T03:25:03.435Z,100702.75
2022-07-26T03:27:29.679Z,100712.13
2022-07-26T03:29:55.973Z,100704.28
2022-07-26T03:32:22.289Z,100705.63
2022-07-26T03:34:48.614Z,100721.34
2022-07-26T03:37:14.953Z,100712.25
2022-07-26T03:39:41.377Z,100708.84
2022-07-26T03:42:07.814Z,100710.03
2022-07-26T03:44:34.041Z,100709.03
2022-07-26T03:47:00.373Z,100712.75
2022-07-26T03:49:26.697Z,100719.25
2022-07-26T03:52:00.378Z,100721.28
2022-07-26T03:54:26.639Z,100725.91
2022-07-26T03:56:52.929Z,100729.66
2022-07-26T03:59:19.210Z,100719.91
2022-07-26T04:01:45.535Z,100715.44
2022-07-26T04:04:12.240Z,100720.06
2022-07-26T04:06:38.769Z,100714.22
2022-07-26T04:09:06.094Z,100710.66
2022-07-26T04:11:32.559Z,100710.47
2022-07-26T04:13:58.834Z,100709.63
2022-07-26T04:16:25.346Z,100714.06
2022-07-26T04:18:51.641Z,100701.09
2022-07-26T04:21:18.065Z,100710.16
2022-07-26T04:23:49.209Z,100709.13
2022-07-26T04:26:17.555Z,100706.41
2022-07-26T04:28:43.792Z,100710.88
2022-07-26T04:31:10.178Z,100704.53
2022-07-26T04:33:36.467Z,100704.69
2022-07-26T04:36:02.830Z,100711.88
2022-07-26T04:38:29.316Z,100705.41
2022-07-26T04:40:55.596Z,100713.44
2022-07-26T04:43:21.838Z,100708.81
2022-07-26T04:45:48.311Z,100706.94
2022-07-26T04:48:14.882Z,100713.25
2022-07-26T04:50:41.166Z,100709.53
2022-07-26T04:53:07.467Z,100710.19
2022-07-26T04:55:33.854Z,100717.22
2022-07-26T04:58:00.126Z,100726.09
2022-07-26T05:00:26.407Z,100727.66
2022-07-26T05:02:52.793Z,100723.75
2022-07-26T05:05:19.082Z,100714.19
2022-07-26T05:07:45.307Z,100715.03
2022-07-26T05:10:11.567Z,100721.19
2022-07-26T05:12:37.809Z,100732.00
2022-07-26T05:15:04.486Z,100720.56
2022-07-26T05:17:30.911Z,100725.84
2022-07-26T05:20:00.010Z,100734.38
2022-07-26T05:22:29.362Z,100743.06
2022-07-26T05:24:55.680Z,100751.97
2022-07-26T05:27:21.925Z,100757.44
2022-07-26T05:29:48.153Z,100754.31
2022-07-26T05:32:14.456Z,100760.50
2022-07-26T05:34:40.717Z,100756.06
2022-07-26T05:37:06.981Z,100761.69
2022-07-26T05:39:33.273Z,100759.13
2022-07-26T05:41:59.625Z,100759.44
2022-07-26T05:44:26.021Z,100751.09
2022-07-26T05:46:52.884Z,100754.16
2022-07-26T05:49:19.158Z,100764.81
2022-07-26T05:51:45.431Z,100762.06
2022-07-26T05:54:12.184Z,100755.22
2022-07-26T05:56:38.440Z,100750.63
2022-07-26T05:59:05.130Z,100761.94
2022-07-26T06:01:31.371Z,100759.25
2022-07-26T06:03:59.237Z,100750.88
2022-07-26T06:06:25.592Z,100757.41
2022-07-26T06:08:51.827Z,100771.44
2022-07-26T06:11:18.068Z,100763.25
2022-07-26T06:13:44.364Z,100762.19
2022-07-26T06:16:10.743Z,100760.00
2022-07-26T06:18:36.969Z,100747.53
2022-07-26T06:21:03.224Z,100749.75
2022-07-26T06:23:34.532Z,100750.97
2022-07-26T06:26:01.369Z,100747.06
2022-07-26T06:28:27.606Z,100753.91
2022-07-26T06:30:53.868Z,100754.22
2022-07-26T06:33:20.125Z,100762.47
2022-07-26T06:35:46.385Z,100753.25
2022-07-26T06:38:12.605Z,100762.16
2022-07-26T06:40:38.869Z,100755.13
2022-07-26T06:43:05.154Z,100769.69
2022-07-26T06:45:31.425Z,100761.81
2022-07-26T06:47:57.682Z,100764.56
2022-07-26T06:50:25.329Z,100752.91
2022-07-26T06:52:52.025Z,100753.47
2022-07-26T06:55:18.291Z,100749.50
2022-07-26T06:57:48.858Z,100755.34
2022-07-26T07:00:16.757Z,100758.59
2022-07-26T07:02:42.990Z,100762.50
2022-07-26T07:05:09.388Z,100763.34
2022-07-26T07:07:35.680Z,100763.19
2022-07-26T07:10:02.792Z,100759.72
2022-07-26T07:12:29.047Z,100765.06
2022-07-26T07:14:55.358Z,100771.41
2022-07-26T07:17:21.614Z,100769.16
2022-07-26T07:19:48.133Z,100775.16
2022-07-26T07:22:14.459Z,100765.38
2022-07-26T07:24:40.790Z,100776.16
2022-07-26T07:27:07.144Z,100764.00
2022-07-26T07:29:33.536Z,100769.78
2022-07-26T07:31:59.916Z,100776.28
2022-07-26T07:34:29.840Z,100773.53
2022-07-26T07:36:56.145Z,100792.34
2022-07-26T07:39:24.007Z,100776.09
2022-07-26T07:41:53.711Z,100786.19
2022-07-26T07:44:20.036Z,100787.56
2022-07-26T07:46:46.502Z,100788.72
2022-07-26T07:49:13.336Z,100778.06
2022-07-26T07:51:39.864Z,100775.72
2022-07-26T07:54:06.315Z,100767.88
2022-07-26T07:56:32.740Z,100766.66
2022-07-26T07:58:59.042Z,100773.50
2022-07-26T08:01:25.406Z,100770.91
2022-07-26T08:04:07.193Z,100771.75
2022-07-26T08:06:33.684Z,100773.78
2022-07-26T08:08:59.930Z,100763.47
2022-07-26T08:11:26.598Z,100776.97
2022-07-26T08:13:56.383Z,100761.66
2022-07-26T08:16:23.027Z,100765.56
2022-07-26T08:18:56.970Z,100760.38
2022-07-26T08:21:23.889Z,100769.06
2022-07-26T08:23:52.572Z,100767.44
2022-07-26T08:26:18.976Z,100762.06
2022-07-26T08:28:47.828Z,100766.75
2022-07-26T08:31:14.417Z,100771.63
2022-07-26T08:33:41.005Z,100765.88
2022-07-26T08:36:12.278Z,100763.97
2022-07-26T08:38:38.547Z,100765.94
2022-07-26T08:41:04.811Z,100768.63
2022-07-26T08:43:31.131Z,100767.69
2022-07-26T08:45:59.106Z,100772.25
2022-07-26T08:48:25.460Z,100773.78
2022-07-26T08:50:51.771Z,100773.59
2022-07-26T08:53:18.034Z,100773.78
2022-07-26T08:56:05.959Z,100780.59
2022-07-26T08:58:30.933Z,100779.63
2022-07-26T09:00:57.235Z,100781.13
2022-07-26T09:03:23.589Z,100783.81
2022-07-26T09:05:50.155Z,100792.63
2022-07-26T09:08:16.550Z,100778.75
2022-07-26T09:10:43.024Z,100791.34
2022-07-26T09:13:09.342Z,100777.13
2022-07-26T09:15:35.646Z,100782.91
2022-07-26T09:18:01.971Z,100789.75
2022-07-26T09:20:29.121Z,100783.22
2022-07-26T09:22:55.789Z,100776.97
2022-07-26T09:25:22.181Z,100779.97
2022-07-26T09:27:48.460Z,100780.34
2022-07-26T09:30:14.863Z,100783.91
2022-07-26T09:32:41.466Z,100785.44
2022-07-26T09:35:24.106Z,100779.25
2022-07-26T09:37:54.071Z,100782.00
2022-07-26T09:40:20.338Z,100793.88
2022-07-26T09:42:46.888Z,100787.19
2022-07-26T09:45:13.231Z,100797.31
2022-07-26T09:47:39.710Z,100790.97
2022-07-26T09:50:10.851Z,100791.72
2022-07-26T09:52:37.781Z,100797.59
2022-07-26T09:55:04.091Z,100797.75
2022-07-26T09:57:30.364Z,100787.44
2022-07-26T09:59:56.593Z,100788.09
2022-07-26T10:02:22.896Z,100792.00
2022-07-26T10:04:49.339Z,100789.59
2022-07-26T10:07:15.956Z,100781.06
2022-07-26T10:09:42.378Z,100780.88
2022-07-26T10:12:08.714Z,100788.63
2022-07-26T10:14:35.052Z,100791.63
2022-07-26T10:17:01.625Z,100784.22
2022-07-26T10:19:28.217Z,100773.19
2022-07-26T10:21:57.834Z,100794.25
2022-07-26T10:24:24.162Z,100773.84
2022-07-26T10:26:50.520Z,100781.91
2022-07-26T10:29:18.804Z,100781.06
2022-07-26T10:31:45.141Z,100785.34
2022-07-26T10:34:12.922Z,100803.00
2022-07-26T10:36:39.633Z,100783.28
2022-07-26T10:39:06.055Z,100782.59
2022-07-26T10:41:32.469Z,100794.75
2022-07-26T10:43:58.800Z,100785.16
2022-07-26T10:46:25.157Z,100781.97
2022-07-26T10:48:51.631Z,100788.13
2022-07-26T10:51:17.924Z,100795.25
2022-07-26T10:53:44.250Z,100802.38
2022-07-26T10:56:10.668Z,100791.53
2022-07-26T10:58:36.897Z,100795.72
2022-07-26T11:01:03.151Z,100800.94
2022-07-26T11:03:29.401Z,100792.56
2022-07-26T11:05:55.798Z,100795.50
2022-07-26T11:08:22.236Z,100797.75
2022-07-26T11:10:48.543Z,100801.69
2022-07-26T11:13:14.942Z,100789.56
2022-07-26T11:15:41.521Z,100804.19
2022-07-26T11:18:08.027Z,100788.78
2022-07-26T11:20:34.284Z,100787.13
2022-07-26T11:23:00.800Z,100790.75
2022-07-26T11:25:27.093Z,100796.72
2022-07-26T11:27:53.601Z,100802.56
2022-07-26T11:30:19.887Z,100794.09
2022-07-26T11:32:46.177Z,100796.38
2022-07-26T11:35:13.941Z,100795.66
2022-07-26T11:37:40.187Z,100793.13
2022-07-26T11:40:06.532Z,100790.28
2022-07-26T11:42:32.820Z,100790.25
2022-07-26T11:44:59.104Z,100784.06
2022-07-26T11:47:26.633Z,100796.34
2022-07-26T11:52:40.032Z,100786.16
2022-07-26T11:55:06.325Z,100789.78
2022-07-26T11:57:33.040Z,100782.91
2022-07-26T11:59:59.423Z,100786.50
2022-07-26T12:02:25.901Z,100783.75
2022-07-26T12:04:52.266Z,100788.81
2022-07-26T12:07:18.691Z,100786.63
2022-07-26T12:09:44.941Z,100789.22
2022-07-26T12:12:11.209Z,100785.78
2022-07-26T12:14:37.468Z,100795.50
2022-07-26T12:17:03.789Z,100800.06
2022-07-26T12:19:30.240Z,100810.91
2022-07-26T12:21:56.582Z,100803.03
2022-07-26T12:24:23.030Z,100798.50
2022-07-26T12:26:49.383Z,100798.22
2022-07-26T12:29:15.609Z,100804.34
2022-07-26T12:31:42.326Z,100829.06
2022-07-26T12:34:09.236Z,100835.69
2022-07-26T12:36:35.856Z,100849.94
2022-07-26T12:39:02.331Z,100888.34
2022-07-26T12:41:28.654Z,100890.81
2022-07-26T12:43:55.059Z,100913.72
2022-07-26T12:46:21.612Z,100908.59
2022-07-26T12:48:48.158Z,100912.53
2022-07-26T12:51:14.479Z,100924.38
2022-07-26T12:53:40.743Z,100933.03
2022-07-26T12:56:07.113Z,100932.63
2022-07-26T12:58:33.605Z,100933.69
2022-07-26T13:00:59.934Z,100939.56
2022-07-26T13:03:26.232Z,100942.22
2022-07-26T13:05:52.571Z,100944.97
2022-07-26T13:08:19.022Z,100956.28
2022-07-26T13:10:45.296Z,100951.44
2022-07-26T13:13:11.544Z,100948.47
2022-07-26T13:15:38.151Z,100944.28
2022-07-26T13:18:04.577Z,100950.28
2022-07-26T13:20:30.963Z,100953.06
2022-07-26T13:22:57.244Z,100950.41
2022-07-26T13:25:24.135Z,100950.91
2022-07-26T13:27:52.334Z,100954.63
2022-07-26T13:30:19.327Z,100947.53
2022-07-26T13:32:45.721Z,100961.78
2022-07-26T13:35:12.018Z,100954.75
2022-07-26T13:37:38.541Z,100951.84
2022-07-26T13:40:04.837Z,100967.94
2022-07-26T13:42:31.116Z,100942.34
2022-07-26T13:44:57.346Z,100954.00
2022-07-26T13:47:23.718Z,100958.75
2022-07-26T13:49:49.995Z,100948.69
2022-07-26T13:52:17.002Z,100949.53
2022-07-26T13:54:43.468Z,100955.38
2022-07-26T13:57:09.825Z,100951.78
2022-07-26T13:59:36.117Z,100944.13
2022-07-26T14:02:02.539Z,100954.75
2022-07-26T14:04:29.174Z,100954.53
2022-07-26T14:06:55.509Z,100945.88
2022-07-26T14:09:21.760Z,100945.44
2022-07-26T14:11:47.998Z,100948.75
2022-07-26T14:14:14.653Z,100943.88
2022-07-26T14:16:41.244Z,100937.59
2022-07-26T14:19:07.691Z,100945.03
2022-07-26T14:21:38.679Z,100949.81
2022-07-26T14:24:14.152Z,100949.50
2022-07-26T14:26:42.752Z,100952.19
2022-07-26T14:29:09.117Z,100958.22
2022-07-26T14:31:35.529Z,100952.41
2022-07-26T14:34:01.887Z,100951.09
2022-07-26T14:36:28.151Z,100952.16
2022-07-26T14:38:54.509Z,100949.25
2022-07-26T14:41:20.733Z,100955.06
2022-07-26T14:43:51.070Z,100959.03
2022-07-26T14:46:20.581Z,100946.59
2022-07-26T14:48:54.612Z,100958.38
2022-07-26T14:51:21.257Z,100964.53
2022-07-26T14:53:47.600Z,100962.50
2022-07-26T14:56:13.857Z,100969.72
2022-07-26T14:58:40.250Z,100972.66
2022-07-26T15:01:06.663Z,100969.41
2022-07-26T15:03:33.098Z,100972.16
2022-07-26T15:05:59.312Z,100967.72
2022-07-26T15:08:25.622Z,100976.28
2022-07-26T15:10:51.900Z,100973.53
2022-07-26T15:13:18.326Z,100967.38
2022-07-26T15:15:44.613Z,100970.97
2022-07-26T15:18:10.905Z,100970.47
2022-07-26T15:20:37.208Z,100973.41
2022-07-26T15:23:03.484Z,100968.97
2022-07-26T15:25:29.724Z,100970.69
2022-07-26T15:27:55.982Z,100962.06
2022-07-26T15:30:22.220Z,100967.28
2022-07-26T15:32:51.804Z,100964.69
2022-07-26T15:35:18.187Z,100964.66
2022-07-26T15:37:44.689Z,100970.00
2022-07-26T15:40:11.140Z,100965.06
2022-07-26T15:42:37.451Z,100956.34
2022-07-26T15:45:06.977Z,100957.84
2022-07-26T15:50:22.413Z,100962.25
2022-07-26T15:52:48.712Z,100950.09
2022-07-26T15:55:15.023Z,100951.84
2022-07-26T15:57:41.244Z,100958.09
2022-07-26T16:00:11.507Z,100951.09
2022-07-26T16:02:38.318Z,100960.03
2022-07-26T16:05:04.641Z,100950.63
2022-07-26T16:07:31.070Z,100952.75
2022-07-26T16:09:57.412Z,100964.50
2022-07-26T16:12:23.664Z,100956.91
2022-07-26T16:14:50.018Z,100953.78
2022-07-26T16:17:16.314Z,100954.81
2022-07-26T16:19:42.640Z,100958.41
2022-07-26T16:22:09.083Z,100962.03
2022-07-26T16:24:35.821Z,100954.69
2022-07-26T16:27:02.164Z,100953.78
2022-07-26T16:29:28.509Z,100959.28
2022-07-26T16:31:54.838Z,100959.53
2022-07-26T16:34:21.222Z,100956.66
2022-07-26T16:36:47.518Z,100960.81
2022-07-26T16:39:14.281Z,100955.16
2022-07-26T16:41:41.116Z,100960.69
2022-07-26T16:44:07.407Z,100966.22
2022-07-26T16:46:33.875Z,100969.28
2022-07-26T16:49:00.246Z,100963.16
2022-07-26T16:51:26.795Z,100966.94
2022-07-26T16:53:53.124Z,100960.59
2022-07-26T16:56:19.573Z,100962.84
2022-07-26T16:58:45.880Z,100955.81
2022-07-26T17:01:12.180Z,100963.19
2022-07-26T17:03:38.480Z,100956.47
2022-07-26T17:06:06.640Z,100961.31
2022-07-26T17:08:33.185Z,100956.84
2022-07-26T17:10:59.592Z,100960.75
2022-07-26T17:13:26.066Z,100961.75
2022-07-26T17:15:52.343Z,100956.22
2022-07-26T17:18:18.818Z,100953.66
2022-07-26T17:20:45.295Z,100949.22
2022-07-26T17:23:11.605Z,100951.97
2022-07-26T17:25:37.883Z,100959.53
2022-07-26T17:28:04.257Z,100955.16
2022-07-26T17:30:30.693Z,100955.03
2022-07-26T17:32:57.180Z,100966.56
2022-07-26T17:35:23.498Z,100951.31
2022-07-26T17:37:49.792Z,100958.56
2022-07-26T17:40:16.402Z,100964.38
2022-07-26T17:42:42.854Z,100969.38
2022-07-26T17:45:09.218Z,100962.53
2022-07-26T17:47:35.526Z,100969.19
2022-07-26T17:50:26.387Z,100964.38
2022-07-26T17:52:48.193Z,100973.84
2022-07-26T17:55:14.458Z,100963.25
2022-07-26T17:57:40.948Z,100968.69
2022-07-26T18:00:07.279Z,100970.00
2022-07-26T18:02:33.567Z,100968.00
2022-07-26T18:04:59.902Z,100960.78
2022-07-26T18:07:26.337Z,100968.72
2022-07-26T18:09:52.804Z,100966.72
2022-07-26T18:12:19.300Z,100973.53
2022-07-26T18:14:45.598Z,100974.09
2022-07-26T18:17:11.897Z,100971.88
2022-07-26T18:19:38.275Z,100979.28
2022-07-26T18:22:06.233Z,100982.56
2022-07-26T18:24:32.767Z,100987.97
2022-07-26T18:26:59.038Z,100987.88
2022-07-26T18:29:25.356Z,100991.81
2022-07-26T18:31:51.749Z,100988.25
2022-07-26T18:34:18.097Z,100984.34
2022-07-26T18:36:44.336Z,100988.47
2022-07-26T18:39:10.922Z,100991.22
2022-07-26T18:41:37.603Z,100988.66
2022-07-26T18:44:03.999Z,100996.56
2022-07-26T18:46:30.263Z,100991.78
2022-07-26T18:48:56.832Z,101000.69
2022-07-26T18:51:23.586Z,101004.94
2022-07-26T18:53:53.135Z,101002.03
2022-07-26T18:56:19.373Z,101009.41
2022-07-26T18:58:45.712Z,101013.84
2022-07-26T19:01:12.059Z,101018.97
2022-07-26T19:03:38.504Z,101024.44
2022-07-26T19:06:04.790Z,101027.00
2022-07-26T19:08:31.094Z,101026.63
2022-07-26T19:10:57.318Z,101032.63
2022-07-26T19:13:23.586Z,101030.53
2022-07-26T19:15:49.846Z,101022.81
2022-07-26T19:18:16.165Z,101023.50
2022-07-26T19:20:42.466Z,101027.41
2022-07-26T19:23:11.075Z,101028.94
2022-07-26T19:25:37.380Z,101033.03
2022-07-26T19:28:03.684Z,101036.44
2022-07-26T19:30:30.002Z,101043.38
2022-07-26T19:32:56.431Z,101051.09
2022-07-26T19:35:22.655Z,101044.22
2022-07-26T19:37:49.010Z,101047.13
2022-07-26T19:40:15.232Z,101050.31
2022-07-26T19:42:41.524Z,101050.66
2022-07-26T19:45:07.796Z,101050.13
2022-07-26T19:47:34.026Z,101051.31
2022-07-26T19:50:00.277Z,101055.38
2022-07-26T19:52:26.547Z,101057.78
2022-07-26T19:54:52.789Z,101068.16
2022-07-26T19:57:19.046Z,101053.09
2022-07-26T19:59:45.343Z,101068.97
2022-07-26T20:02:11.727Z,101071.16
2022-07-26T20:04:40.714Z,101073.53
2022-07-26T20:07:09.146Z,101071.25
2022-07-26T20:09:35.387Z,101065.09
2022-07-26T20:12:01.649Z,101067.44
2022-07-26T20:14:27.930Z,101069.81
2022-07-26T20:16:56.243Z,101074.03
2022-07-26T20:19:22.803Z,101069.91
2022-07-26T20:21:49.007Z,101074.97
2022-07-26T20:24:15.241Z,101083.66
2022-07-26T20:26:41.443Z,101079.47
2022-07-26T20:29:07.799Z,101078.78
2022-07-26T20:31:34.114Z,101082.84
2022-07-26T20:34:00.352Z,101085.00
2022-07-26T20:36:26.576Z,101088.63
2022-07-26T20:38:52.841Z,101091.69
2022-07-26T20:41:19.074Z,101093.69
2022-07-26T20:43:47.145Z,101092.28
2022-07-26T20:46:14.128Z,101095.31
2022-07-26T20:48:40.444Z,101094.78
2022-07-26T20:51:06.691Z,101093.22
2022-07-26T20:53:39.839Z,101094.38
2022-07-26T20:56:06.084Z,101101.16
2022-07-26T20:58:32.381Z,101103.38
2022-07-26T21:00:58.671Z,101094.59
2022-07-26T21:03:24.960Z,101099.38
2022-07-26T21:05:51.177Z,101096.78
2022-07-26T21:08:17.480Z,101106.00
2022-07-26T21:10:43.688Z,101110.19
2022-07-26T21:13:09.961Z,101113.25
2022-07-26T21:15:36.180Z,101119.00
2022-07-26T21:18:02.419Z,101116.59
2022-07-26T21:20:30.225Z,101115.19
2022-07-26T21:23:08.199Z,101119.22
2022-07-26T21:25:39.285Z,101123.09
2022-07-26T21:28:05.510Z,101125.28
2022-07-26T21:30:31.748Z,101128.28
2022-07-26T21:32:57.968Z,101133.91
2022-07-26T21:35:24.203Z,101133.38
2022-07-26T21:37:50.426Z,101139.28
2022-07-26T21:40:16.662Z,101139.41
2022-07-26T21:42:42.931Z,101140.44
2022-07-26T21:45:09.177Z,101141.44
2022-07-26T21:47:35.392Z,101146.06
2022-07-26T21:50:01.661Z,101151.66
2022-07-26T21:52:27.862Z,101156.81
2022-07-26T21:54:54.096Z,101149.19
2022-07-26T21:57:20.311Z,101160.97
2022-07-26T21:59:46.558Z,101160.84
2022-07-26T22:02:12.805Z,101162.69
2022-07-26T22:04:39.334Z,101158.25
2022-07-26T22:07:07.046Z,101168.44
2022-07-26T22:09:33.372Z,101161.25
2022-07-26T22:11:59.581Z,101169.44
2022-07-26T22:14:25.812Z,101177.09
2022-07-26T22:16:52.103Z,101174.34
2022-07-26T22:19:18.421Z,101181.84
2022-07-26T22:21:44.640Z,101186.59
2022-07-26T22:24:10.878Z,101180.44
2022-07-26T22:26:37.110Z,101189.88
2022-07-26T22:29:03.374Z,101182.69
2022-07-26T22:31:29.635Z,101194.75
2022-07-26T22:33:55.966Z,101195.06
2022-07-26T22:36:22.181Z,101191.63
2022-07-26T22:38:48.432Z,101186.63
2022-07-26T22:41:14.650Z,101194.22
2022-07-26T22:43:40.913Z,101203.41
2022-07-26T22:46:07.164Z,101196.38
2022-07-26T22:48:37.915Z,101203.84
2022-07-26T22:51:04.503Z,101199.97
2022-07-26T22:53:30.751Z,101196.56
2022-07-26T22:55:56.985Z,101199.53
2022-07-26T22:58:23.249Z,101210.75
2022-07-26T23:00:49.502Z,101208.31
2022-07-26T23:03:19.763Z,101209.47
2022-07-26T23:05:47.637Z,101213.22
2022-07-26T23:08:44.190Z,101216.19
2022-07-26T23:11:00.307Z,101216.63
2022-07-26T23:13:26.687Z,101220.25
2022-07-26T23:15:55.650Z,101221.25
2022-07-26T23:18:26.124Z,101218.81
2022-07-26T23:20:52.374Z,101220.94
2022-07-26T23:23:18.604Z,101217.22
2022-07-26T23:25:44.852Z,101212.91
2022-07-26T23:28:36.097Z,101217.94
2022-07-26T23:31:00.162Z,101221.81
2022-07-26T23:33:52.667Z,101227.69
2022-07-26T23:36:12.655Z,101230.53
2022-07-26T23:38:38.901Z,101226.25
2022-07-26T23:41:05.116Z,101233.84
2022-07-26T23:43:31.340Z,101231.81
2022-07-26T23:45:57.553Z,101228.78
2022-07-26T23:48:23.799Z,101219.31
2022-07-26T23:50:50.030Z,101216.72
2022-07-26T23:53:16.261Z,101214.97
2022-07-26T23:55:42.473Z,101216.13
2022-07-26T23:58:15.543Z,101211.66
